Time;durP1;ratioP1;P1;durP2;ratioP2;P2;SDS_P1;SDS_P2;PMS_P1;PMS_P2;Temp;Humidity;BMP_temperature;BMP_pressure;BME280_temperature;BME280_humidity;BME280_pressure;Samples;Min_cycle;Max_cycle;Signal;HPM_P1;HPM_P2
2023/06/10 00:00:43;;;;;;;22.25;19.98;;;23.10;99.60;;;;;;5054594;28;20071;-54
2023/06/10 00:03:09;;;;;;;22.92;20.33;;;23.10;99.80;;;;;;5054129;28;20421;-53
2023/06/10 00:05:38;;;;;;;22.85;20.52;;;23.10;99.80;;;;;;5052714;28;20025;-53
2023/06/10 00:08:08;;;;;;;22.98;20.60;;;23.10;99.90;;;;;;5053851;28;20495;-56
2023/06/10 00:10:35;;;;;;;23.08;20.77;;;23.10;99.90;;;;;;5054126;28;20033;-56
2023/06/10 00:13:03;;;;;;;23.50;21.20;;;23.20;99.90;;;;;;5073870;28;20067;-57
2023/06/10 00:15:29;;;;;;;23.35;21.05;;;23.10;99.90;;;;;;5073643;28;20503;-53
2023/06/10 00:17:55;;;;;;;23.13;20.93;;;23.10;99.90;;;;;;5072597;28;20104;-56
2023/06/10 00:20:24;;;;;;;25.33;20.70;;;23.10;99.90;;;;;;5073575;28;20033;-56
2023/06/10 00:22:50;;;;;;;22.33;19.92;;;23.00;99.90;;;;;;5073495;28;20024;-56
2023/06/10 00:25:16;;;;;;;21.63;19.30;;;23.00;99.90;;;;;;5072344;28;20194;-58
2023/06/10 00:27:42;;;;;;;22.10;19.80;;;22.90;99.90;;;;;;5063408;28;20071;-55
2023/06/10 00:30:09;;;;;;;20.10;18.17;;;22.80;99.90;;;;;;5065558;28;20054;-53
2023/06/10 00:32:36;;;;;;;20.58;18.50;;;22.80;99.90;;;;;;5071031;28;20024;-54
2023/06/10 00:35:02;;;;;;;;;;;22.80;99.90;;;;;;5058309;28;20075;-54
2023/06/10 00:37:30;;;;;;;20.02;18.00;;;22.70;99.90;;;;;;5066435;28;19908;-53
2023/06/10 00:39:56;;;;;;;19.93;17.93;;;22.70;99.90;;;;;;5048340;28;20447;-54
2023/06/10 00:42:24;;;;;;;21.43;19.33;;;22.70;99.90;;;;;;5070925;28;20024;-53
2023/06/10 00:44:50;;;;;;;19.55;17.52;;;22.70;99.90;;;;;;5056140;28;20020;-57
2023/06/10 00:47:16;;;;;;;;;;;22.70;99.90;;;;;;5060444;28;20070;-55
2023/06/10 00:49:43;;;;;;;20.17;18.17;;;22.70;99.90;;;;;;5061135;28;19909;-54
2023/06/10 00:52:10;;;;;;;18.95;16.95;;;22.60;99.90;;;;;;5065599;28;20520;-55
2023/06/10 00:54:38;;;;;;;20.52;17.65;;;22.70;99.90;;;;;;5066251;28;20086;-56
2023/06/10 00:57:05;;;;;;;19.13;17.23;;;22.70;99.90;;;;;;5052386;28;20391;-54
2023/06/10 00:59:32;;;;;;;21.40;17.15;;;22.70;99.90;;;;;;5067547;28;20036;-56
2023/06/10 01:01:58;;;;;;;18.70;16.42;;;22.70;99.90;;;;;;5054425;28;20448;-57
2023/06/10 01:04:24;;;;;;;18.92;16.92;;;22.70;99.90;;;;;;5060488;28;20390;-54
2023/06/10 01:07:03;;;;;;;21.05;19.05;;;22.70;99.90;;;;;;5067882;28;20025;-54
2023/06/10 01:09:47;;;;;;;21.17;18.88;;;22.70;99.90;;;;;;5069266;28;20033;-56
2023/06/10 01:12:36;;;;;;;23.27;18.67;;;22.70;99.90;;;;;;5051425;28;20029;-55
2023/06/10 01:15:04;;;;;;;20.95;18.48;;;22.70;99.90;;;;;;5051408;28;20060;-55
2023/06/10 01:17:30;;;;;;;21.70;19.40;;;22.70;99.90;;;;;;5051400;28;20029;-57
2023/06/10 01:19:57;;;;;;;23.17;20.65;;;22.70;99.90;;;;;;5051344;28;20032;-53
2023/06/10 01:22:23;;;;;;;;;;;22.70;99.90;;;;;;5062417;28;20372;-57
2023/06/10 01:24:52;;;;;;;;;;;22.60;99.90;;;;;;5069472;28;19909;-53
2023/06/10 01:27:21;;;;;;;24.23;21.42;;;22.60;99.90;;;;;;5065247;28;19908;-54
2023/06/10 01:29:54;;;;;;;23.60;20.73;;;22.50;99.90;;;;;;5052109;28;20029;-51
2023/06/10 01:32:30;;;;;;;23.00;20.52;;;22.50;99.90;;;;;;5056633;28;20044;-57
2023/06/10 01:34:57;;;;;;;23.70;21.25;;;22.40;99.90;;;;;;5049695;28;20159;-53
2023/06/10 01:37:26;;;;;;;24.42;21.73;;;22.40;99.90;;;;;;5058334;28;20024;-55
2023/06/10 01:39:54;;;;;;;23.27;20.98;;;22.40;99.90;;;;;;5058086;28;20024;-54
2023/06/10 01:42:21;;;;;;;23.08;20.52;;;22.40;99.90;;;;;;5063647;28;20033;-53
2023/06/10 01:44:46;;;;;;;;;;;22.40;99.90;;;;;;5059737;28;20020;-54
2023/06/10 01:47:12;;;;;;;24.15;21.60;;;22.40;99.90;;;;;;5072083;28;19915;-56
2023/06/10 01:49:38;;;;;;;27.00;23.63;;;22.30;99.90;;;;;;5058186;28;20495;-56
2023/06/10 01:52:04;;;;;;;25.57;23.00;;;22.30;99.90;;;;;;5034340;28;20036;-56
2023/06/10 01:54:34;;;;;;;24.15;21.70;;;22.30;99.90;;;;;;5051953;28;20096;-59
2023/06/10 01:57:01;;;;;;;25.05;21.90;;;22.30;99.90;;;;;;5050429;28;20032;-55
2023/06/10 01:59:27;;;;;;;24.85;22.15;;;22.30;99.90;;;;;;5050578;28;20043;-58
2023/06/10 02:01:53;;;;;;;24.90;22.40;;;22.30;99.90;;;;;;5063577;28;20032;-55
2023/06/10 02:04:18;;;;;;;23.23;20.83;;;22.20;99.90;;;;;;5054147;28;20083;-55
2023/06/10 02:06:45;;;;;;;22.03;19.90;;;22.20;99.90;;;;;;5052535;28;20021;-58
2023/06/10 02:09:11;;;;;;;22.80;19.38;;;22.10;99.90;;;;;;5069539;28;20034;-57
2023/06/10 02:11:37;;;;;;;23.53;19.53;;;22.10;99.90;;;;;;5070356;28;20050;-56
2023/06/10 02:14:02;;;;;;;21.90;19.17;;;22.10;99.90;;;;;;5070512;28;20491;-55
2023/06/10 02:16:28;;;;;;;21.97;17.90;;;22.10;99.90;;;;;;5070229;28;20033;-53
2023/06/10 02:18:54;;;;;;;25.00;18.15;;;22.10;99.90;;;;;;5068932;28;20381;-58
2023/06/10 02:21:20;;;;;;;20.30;16.83;;;22.10;99.90;;;;;;5061012;28;20035;-56
2023/06/10 02:23:46;;;;;;;21.65;17.92;;;22.10;99.90;;;;;;5064268;28;20059;-51
2023/06/10 02:26:12;;;;;;;20.33;16.27;;;22.10;99.90;;;;;;5065354;28;20024;-54
2023/06/10 02:28:38;;;;;;;19.43;16.17;;;22.00;99.90;;;;;;5055320;28;20067;-54
2023/06/10 02:31:03;;;;;;;17.67;15.80;;;22.10;99.90;;;;;;5043405;28;20033;-56
2023/06/10 02:33:29;;;;;;;20.40;15.15;;;22.10;99.90;;;;;;5061188;28;20039;-52
2023/06/10 02:35:56;;;;;;;17.00;14.90;;;22.10;99.90;;;;;;5038442;28;20036;-56
2023/06/10 02:38:23;;;;;;;18.45;16.25;;;22.10;99.90;;;;;;5057178;28;20492;-55
2023/06/10 02:40:49;;;;;;;20.08;14.93;;;22.10;99.90;;;;;;5056909;28;20029;-54
2023/06/10 02:43:15;;;;;;;17.43;15.60;;;22.10;99.90;;;;;;5069538;28;20036;-55
2023/06/10 02:45:42;;;;;;;18.13;15.57;;;22.10;99.90;;;;;;5058328;28;20025;-54
2023/06/10 02:48:10;;;;;;;17.95;14.68;;;22.10;99.90;;;;;;5045570;28;20538;-53
2023/06/10 02:50:38;;;;;;;17.73;15.52;;;22.10;99.90;;;;;;5054414;28;20032;-52
2023/06/10 02:53:16;;;;;;;18.75;14.65;;;22.10;99.90;;;;;;5054740;28;20120;-56
2023/06/10 02:55:47;;;;;;;17.17;14.52;;;22.10;99.90;;;;;;5049353;28;20029;-56
2023/06/10 02:58:15;;;;;;;19.35;14.35;;;22.00;99.90;;;;;;5057553;28;20024;-53
2023/06/10 03:00:43;;;;;;;16.02;13.65;;;22.00;99.90;;;;;;5065180;28;20075;-56
2023/06/10 03:03:10;;;;;;;15.82;14.10;;;22.00;99.90;;;;;;5055809;28;20068;-55
2023/06/10 03:05:44;;;;;;;14.70;13.00;;;22.00;99.90;;;;;;5058293;28;20024;-57
2023/06/10 03:08:10;;;;;;;17.33;14.70;;;22.00;99.90;;;;;;5056982;28;20064;-53
2023/06/10 03:10:40;;;;;;;19.33;14.52;;;21.90;99.90;;;;;;5052559;28;20286;-54
2023/06/10 03:13:06;;;;;;;17.38;14.98;;;21.80;99.90;;;;;;5067730;28;20036;-52
2023/06/10 03:15:36;;;;;;;17.08;14.13;;;21.80;99.90;;;;;;5055949;28;20021;-54
2023/06/10 03:18:06;;;;;;;17.63;14.02;;;21.80;99.90;;;;;;5046347;28;20463;-51
2023/06/10 03:20:37;;;;;;;21.75;13.70;;;21.70;99.90;;;;;;5051274;28;20037;-53
2023/06/10 03:23:07;;;;;;;15.77;13.02;;;21.80;99.90;;;;;;5073522;28;20028;-53
2023/06/10 03:25:34;;;;;;;16.55;12.93;;;21.70;99.90;;;;;;5072713;28;20037;-52
2023/06/10 03:28:00;;;;;;;18.20;13.27;;;21.80;99.90;;;;;;5071595;28;20043;-52
2023/06/10 03:30:27;;;;;;;17.45;12.57;;;21.70;99.90;;;;;;5061810;28;20445;-55
2023/06/10 03:32:53;;;;;;;17.65;12.93;;;21.80;99.90;;;;;;5039742;28;20083;-53
2023/06/10 03:35:23;;;;;;;18.77;13.20;;;21.80;99.90;;;;;;5053814;28;20119;-53
2023/06/10 03:37:49;;;;;;;32.35;11.32;;;21.80;99.90;;;;;;5058453;28;20118;-54
2023/06/10 03:40:15;;;;;;;17.60;13.20;;;21.80;99.90;;;;;;5072607;28;20071;-62
2023/06/10 03:42:44;;;;;;;17.88;12.63;;;21.80;99.90;;;;;;5056811;28;20357;-52
2023/06/10 03:45:11;;;;;;;25.35;14.02;;;21.70;99.90;;;;;;5058406;28;20116;-53
2023/06/10 03:47:38;;;;;;;16.55;12.85;;;21.70;99.90;;;;;;5068578;28;20064;-54
2023/06/10 03:50:10;;;;;;;15.93;12.88;;;21.70;99.90;;;;;;5059188;28;20502;-53
2023/06/10 03:52:38;;;;;;;22.25;13.95;;;21.70;99.90;;;;;;5068124;28;20114;-58
2023/06/10 03:55:05;;;;;;;16.38;11.73;;;21.70;99.90;;;;;;5057210;28;20032;-59
2023/06/10 03:57:32;;;;;;;19.15;14.02;;;21.70;99.90;;;;;;5059262;28;20058;-54
2023/06/10 03:59:58;;;;;;;14.37;12.33;;;21.70;99.90;;;;;;5059019;28;20044;-54
2023/06/10 04:02:24;;;;;;;17.05;11.85;;;21.80;99.90;;;;;;5059156;28;20076;-55
2023/06/10 04:04:51;;;;;;;19.50;11.85;;;21.80;99.90;;;;;;5050489;28;20033;-53
2023/06/10 04:07:18;;;;;;;16.98;12.05;;;21.80;99.90;;;;;;5051588;28;20097;-57
2023/06/10 04:09:44;;;;;;;12.45;10.45;;;21.70;99.90;;;;;;5052326;28;20040;-54
2023/06/10 04:12:10;;;;;;;14.38;11.07;;;21.70;99.90;;;;;;5052488;28;20036;-57
2023/06/10 04:14:37;;;;;;;17.88;11.80;;;21.60;99.90;;;;;;5052612;28;20052;-53
2023/06/10 04:17:08;;;;;;;14.93;10.98;;;21.70;99.90;;;;;;5052420;28;20116;-54
2023/06/10 04:19:35;;;;;;;17.08;10.15;;;21.60;99.90;;;;;;5052451;28;20043;-57
2023/06/10 04:22:03;;;;;;;13.48;9.75;;;21.60;99.90;;;;;;5052309;28;20491;-56
2023/06/10 04:24:30;;;;;;;16.92;10.57;;;21.60;99.90;;;;;;5052064;28;20029;-52
2023/06/10 04:26:56;;;;;;;16.35;10.05;;;21.60;99.90;;;;;;5052236;28;20112;-52
2023/06/10 04:29:22;;;;;;;11.47;10.37;;;21.70;99.90;;;;;;5052355;28;20132;-54
2023/06/10 04:31:48;;;;;;;12.60;10.03;;;21.70;99.90;;;;;;5053483;28;20028;-56
2023/06/10 04:34:14;;;;;;;12.30;10.98;;;21.70;99.90;;;;;;5052213;28;20499;-56
2023/06/10 04:36:41;;;;;;;15.83;10.60;;;21.70;99.90;;;;;;5051975;28;20037;-55
2023/06/10 04:39:06;;;;;;;14.43;11.80;;;21.70;99.90;;;;;;5052096;28;20045;-56
2023/06/10 04:41:34;;;;;;;16.90;11.13;;;21.80;99.90;;;;;;5035585;28;20087;-56
2023/06/10 04:43:59;;;;;;;13.30;11.18;;;21.80;99.90;;;;;;5052119;28;20422;-57
2023/06/10 04:46:26;;;;;;;16.33;10.63;;;21.80;99.90;;;;;;5051835;28;20548;-58
2023/06/10 04:48:51;;;;;;;13.23;10.68;;;21.70;99.90;;;;;;5052158;28;20028;-57
2023/06/10 04:51:18;;;;;;;17.40;12.48;;;21.70;99.90;;;;;;5051766;28;20064;-55
2023/06/10 04:53:44;;;;;;;14.00;11.45;;;21.60;99.90;;;;;;5053122;28;20059;-56
2023/06/10 04:56:10;;;;;;;16.17;11.33;;;21.60;99.90;;;;;;5053168;28;20495;-55
2023/06/10 04:58:36;;;;;;;14.10;10.15;;;21.60;99.90;;;;;;5053181;28;20112;-63
2023/06/10 05:01:02;;;;;;;15.30;10.75;;;21.50;99.90;;;;;;5051572;28;20037;-63
2023/06/10 05:03:28;;;;;;;17.05;10.88;;;21.60;99.90;;;;;;5053028;28;20142;-63
2023/06/10 05:05:54;;;;;;;13.02;9.20;;;21.60;99.90;;;;;;5051464;28;20115;-63
2023/06/10 05:08:20;;;;;;;14.02;10.50;;;21.70;99.90;;;;;;5052754;28;20036;-63
2023/06/10 05:10:46;;;;;;;12.13;8.52;;;21.70;99.90;;;;;;5052751;28;20454;-63
2023/06/10 05:13:11;;;;;;;11.93;6.90;;;21.60;99.90;;;;;;5052861;28;20052;-63
2023/06/10 05:15:37;;;;;;;11.27;7.40;;;21.60;99.90;;;;;;5051441;28;20036;-63
2023/06/10 05:18:03;;;;;;;10.17;7.87;;;21.70;99.90;;;;;;5051467;28;20028;-63
2023/06/10 05:20:29;;;;;;;8.50;7.13;;;21.70;99.90;;;;;;5052507;28;20518;-63
2023/06/10 05:22:55;;;;;;;13.18;8.23;;;21.70;99.90;;;;;;5052686;28;20476;-63
2023/06/10 05:25:21;;;;;;;9.77;7.53;;;21.70;99.90;;;;;;5052371;28;20067;-64
2023/06/10 05:27:47;;;;;;;9.85;7.90;;;21.70;99.90;;;;;;5052462;28;20040;-64
2023/06/10 05:30:13;;;;;;;11.20;8.55;;;21.70;99.90;;;;;;5052465;28;20040;-63
2023/06/10 05:32:39;;;;;;;8.73;7.78;;;21.70;99.90;;;;;;5052358;28;20029;-63
2023/06/10 05:35:06;;;;;;;13.10;7.38;;;21.70;99.90;;;;;;5050353;28;20039;-62
2023/06/10 05:37:33;;;;;;;;;;;21.60;99.90;;;;;;5053195;28;20032;-63
2023/06/10 05:39:59;;;;;;;10.07;6.82;;;21.60;99.40;;;;;;5052242;28;19909;-63
2023/06/10 05:42:25;;;;;;;11.48;7.13;;;21.60;99.70;;;;;;5052147;28;20117;-62
2023/06/10 05:44:50;;;;;;;9.00;8.10;;;21.60;99.70;;;;;;5052050;28;20100;-62
2023/06/10 05:47:16;;;;;;;9.38;7.95;;;21.60;99.90;;;;;;5052161;28;20032;-62
2023/06/10 05:49:42;;;;;;;9.77;8.40;;;21.60;99.90;;;;;;5050775;28;20101;-61
2023/06/10 05:52:08;;;;;;;10.68;8.90;;;21.70;99.90;;;;;;5051933;28;20037;-63
2023/06/10 05:54:34;;;;;;;13.13;8.77;;;21.70;99.90;;;;;;5052060;28;20035;-63
2023/06/10 05:57:00;;;;;;;12.63;8.68;;;21.70;99.90;;;;;;5051883;28;20048;-62
2023/06/10 05:59:26;;;;;;;10.45;8.15;;;21.70;99.90;;;;;;5051980;28;20029;-63
2023/06/10 06:01:51;;;;;;;13.48;9.20;;;21.70;99.90;;;;;;5050677;28;20032;-63
2023/06/10 06:04:17;;;;;;;15.32;8.48;;;21.70;99.90;;;;;;5050475;28;20029;-64
2023/06/10 06:06:43;;;;;;;14.85;8.55;;;21.80;99.90;;;;;;5051578;28;20394;-62
2023/06/10 06:09:09;;;;;;;14.33;9.53;;;21.80;99.90;;;;;;5051786;28;20032;-63
2023/06/10 06:11:35;;;;;;;12.13;8.35;;;21.80;99.90;;;;;;5051730;28;20032;-62
2023/06/10 06:14:01;;;;;;;13.70;8.55;;;21.80;99.90;;;;;;5052114;28;20061;-62
2023/06/10 06:16:27;;;;;;;14.03;9.50;;;21.90;99.90;;;;;;5051580;28;20063;-63
2023/06/10 06:18:53;;;;;;;9.98;8.13;;;21.90;99.90;;;;;;5051526;28;20024;-63
2023/06/10 06:21:18;;;;;;;12.37;8.33;;;21.90;99.90;;;;;;5050298;28;20539;-63
2023/06/10 06:23:44;;;;;;;11.27;6.93;;;21.90;99.90;;;;;;5050220;28;20498;-63
2023/06/10 06:26:10;;;;;;;12.13;7.60;;;21.90;99.50;;;;;;5051331;28;20039;-63
2023/06/10 06:28:36;;;;;;;9.60;7.70;;;21.80;99.40;;;;;;5051561;28;20025;-63
2023/06/10 06:31:01;;;;;;;9.63;7.20;;;21.90;99.00;;;;;;5051957;28;20075;-63
2023/06/10 06:33:27;;;;;;;9.02;7.00;;;22.00;98.40;;;;;;5051382;28;20040;-63
2023/06/10 06:35:53;;;;;;;9.75;6.63;;;22.00;98.10;;;;;;5051248;28;20111;-62
2023/06/10 06:38:19;;;;;;;9.53;7.53;;;22.00;98.00;;;;;;5051525;28;20033;-61
2023/06/10 06:40:45;;;;;;;10.00;5.80;;;22.00;97.90;;;;;;5050004;28;20029;-63
2023/06/10 06:43:11;;;;;;;14.27;6.47;;;22.00;98.00;;;;;;5050301;28;20036;-63
2023/06/10 06:45:56;;;;;;;7.43;4.82;;;22.10;97.60;;;;;;5051159;28;20075;-63
2023/06/10 06:48:22;;;;;;;4.93;4.32;;;22.20;95.80;;;;;;5053902;28;20033;-63
2023/06/10 06:50:48;;;;;;;7.05;4.30;;;22.20;95.00;;;;;;5054128;28;20522;-63
2023/06/10 06:53:14;;;;;;;4.78;3.50;;;22.30;94.40;;;;;;5054270;28;20037;-63
2023/06/10 06:55:39;;;;;;;5.43;4.07;;;22.30;93.60;;;;;;5037332;28;20021;-63
2023/06/10 06:58:06;;;;;;;5.93;4.40;;;22.40;92.90;;;;;;5054096;28;20507;-62
2023/06/10 07:00:32;;;;;;;5.38;3.58;;;22.40;92.80;;;;;;5037248;28;20107;-64
2023/06/10 07:02:58;;;;;;;5.00;3.87;;;22.50;91.90;;;;;;5053933;28;20044;-63
2023/06/10 07:05:28;;;;;;;5.13;3.80;;;22.60;91.10;;;;;;5054014;28;20270;-63
2023/06/10 07:07:57;;;;;;;8.25;3.75;;;22.60;90.90;;;;;;5055153;28;20071;-63
2023/06/10 07:10:24;;;;;;;6.55;4.00;;;22.70;90.10;;;;;;5055065;28;20033;-63
2023/06/10 07:12:51;;;;;;;5.63;3.55;;;22.70;90.20;;;;;;5053616;28;20068;-63
2023/06/10 07:15:17;;;;;;;4.23;3.23;;;22.80;89.50;;;;;;5053543;28;20503;-63
2023/06/10 07:17:44;;;;;;;5.03;3.05;;;22.90;87.40;;;;;;5053674;28;20357;-63
2023/06/10 07:20:11;;;;;;;8.93;3.47;;;22.90;88.50;;;;;;5036973;28;20047;-63
2023/06/10 07:22:38;;;;;;;5.10;3.58;;;23.00;89.20;;;;;;5053538;28;20032;-63
2023/06/10 07:25:05;;;;;;;4.07;2.40;;;22.90;88.60;;;;;;5054626;28;20029;-63
2023/06/10 07:27:31;;;;;;;5.28;3.25;;;23.00;87.10;;;;;;5054728;28;20029;-63
2023/06/10 07:29:57;;;;;;;5.70;2.63;;;23.00;86.50;;;;;;5054826;28;20021;-63
2023/06/10 07:32:23;;;;;;;3.47;2.43;;;23.00;83.90;;;;;;5054610;28;20121;-63
2023/06/10 07:34:50;;;;;;;5.85;3.50;;;23.00;83.40;;;;;;5054423;28;20029;-63
2023/06/10 07:37:16;;;;;;;2.95;2.17;;;22.90;82.50;;;;;;5054586;28;20024;-60
2023/06/10 07:39:43;;;;;;;3.13;1.97;;;22.90;81.20;;;;;;5054506;28;20075;-60
2023/06/10 07:42:09;;;;;;;2.70;1.95;;;22.90;81.00;;;;;;5053029;28;20634;-58
2023/06/10 07:44:34;;;;;;;3.73;3.07;;;22.80;80.00;;;;;;5054438;28;20074;-61
2023/06/10 07:47:00;;;;;;;5.93;3.15;;;22.80;81.10;;;;;;5053040;28;20033;-53
2023/06/10 07:49:26;;;;;;;4.13;3.03;;;22.80;84.20;;;;;;5053127;28;20017;-51
2023/06/10 07:51:54;;;;;;;4.80;3.50;;;22.70;84.80;;;;;;5054317;28;20032;-58
2023/06/10 07:54:20;;;;;;;6.75;3.53;;;22.80;85.90;;;;;;5054275;28;20037;-55
2023/06/10 07:56:47;;;;;;;4.03;3.53;;;22.80;86.60;;;;;;5052631;28;20040;-55
2023/06/10 07:59:14;;;;;;;6.13;3.57;;;22.80;88.30;;;;;;5053563;28;20025;-51
2023/06/10 08:01:40;;;;;;;6.20;3.63;;;22.80;88.20;;;;;;5054763;28;20033;-55
2023/06/10 08:04:07;;;;;;;5.53;4.07;;;22.90;88.90;;;;;;5054240;28;20479;-52
2023/06/10 08:06:33;;;;;;;5.60;3.95;;;22.90;88.20;;;;;;5053821;28;20024;-53
2023/06/10 08:08:59;;;;;;;9.13;4.57;;;23.00;88.80;;;;;;5054008;28;20021;-56
2023/06/10 08:11:28;;;;;;;5.32;3.65;;;23.00;87.70;;;;;;5053782;28;20060;-54
2023/06/10 08:13:54;;;;;;;7.82;5.93;;;23.00;86.90;;;;;;5053977;28;20028;-54
2023/06/10 08:16:20;;;;;;;6.50;4.45;;;23.10;88.70;;;;;;5053647;28;20404;-56
2023/06/10 08:18:46;;;;;;;7.03;4.35;;;23.10;87.60;;;;;;5052437;28;20033;-55
2023/06/10 08:21:12;;;;;;;5.10;4.60;;;23.10;88.20;;;;;;5052491;28;20044;-53
2023/06/10 08:23:37;;;;;;;6.80;4.00;;;23.10;88.80;;;;;;5053686;28;20029;-53
2023/06/10 08:26:03;;;;;;;7.87;3.87;;;23.00;87.10;;;;;;5053516;28;20035;-58
2023/06/10 08:28:29;;;;;;;6.87;5.10;;;23.10;87.10;;;;;;5053634;28;20494;-54
2023/06/10 08:30:55;;;;;;;5.20;4.33;;;23.10;87.50;;;;;;5053588;28;20032;-57
2023/06/10 08:33:21;;;;;;;5.60;4.23;;;23.30;88.40;;;;;;5052343;28;20059;-53
2023/06/10 08:35:47;;;;;;;11.33;5.30;;;23.40;87.70;;;;;;5053387;28;20025;-55
2023/06/10 08:38:13;;;;;;;8.17;5.20;;;23.60;87.70;;;;;;5053466;28;20123;-53
2023/06/10 08:40:38;;;;;;;7.67;4.97;;;23.70;84.50;;;;;;5053203;28;20113;-54
2023/06/10 08:43:33;;;;;;;8.27;5.73;;;23.70;86.50;;;;;;5053303;28;20032;-56
2023/06/10 08:46:01;;;;;;;10.55;5.53;;;23.80;86.50;;;;;;5042527;28;20555;-54
2023/06/10 08:48:30;;;;;;;6.90;5.03;;;23.80;85.80;;;;;;5053312;28;20495;-55
2023/06/10 08:50:58;;;;;;;6.93;5.70;;;23.80;87.70;;;;;;5051769;28;20162;-57
2023/06/10 08:53:25;;;;;;;10.02;5.00;;;23.80;89.00;;;;;;5053151;28;20052;-52
2023/06/10 08:55:52;;;;;;;11.45;5.78;;;23.90;89.90;;;;;;5052953;28;20029;-52
2023/06/10 08:58:19;;;;;;;;;;;23.90;90.00;;;;;;5053559;28;20028;-55
2023/06/10 09:00:46;;;;;;;6.75;6.10;;;23.80;89.70;;;;;;5052844;28;19966;-54
2023/06/10 09:03:12;;;;;;;;;;;23.70;90.30;;;;;;5035475;28;20041;-54
2023/06/10 09:05:38;;;;;;;10.50;6.32;;;23.70;90.70;;;;;;5051365;28;19912;-53
2023/06/10 09:08:07;;;;;;;7.90;5.20;;;23.70;91.20;;;;;;5051699;28;20021;-56
2023/06/10 09:10:34;;;;;;;8.90;5.38;;;23.60;90.80;;;;;;5051915;28;20060;-56
2023/06/10 09:12:59;;;;;;;11.00;5.87;;;23.60;91.40;;;;;;5052800;28;20064;-53
2023/06/10 09:15:25;;;;;;;9.60;5.73;;;23.40;91.30;;;;;;5052563;28;20298;-56
2023/06/10 09:17:51;;;;;;;7.03;5.73;;;23.20;91.70;;;;;;5052614;28;20035;-54
2023/06/10 09:20:17;;;;;;;11.70;6.03;;;23.10;93.00;;;;;;5052550;28;20036;-54
2023/06/10 09:22:43;;;;;;;10.13;5.67;;;23.10;93.90;;;;;;5034631;28;20048;-53
2023/06/10 09:25:11;;;;;;;7.80;5.70;;;23.00;94.30;;;;;;5052443;28;20036;-54
2023/06/10 09:27:53;;;;;;;6.88;5.88;;;22.90;94.50;;;;;;5052491;28;20025;-56
2023/06/10 09:30:27;;;;;;;9.57;6.30;;;22.90;95.40;;;;;;5052420;28;20033;-57
2023/06/10 09:32:56;;;;;;;10.70;5.97;;;22.90;95.10;;;;;;5052185;28;20575;-51
2023/06/10 09:35:23;;;;;;;9.60;5.78;;;22.90;94.50;;;;;;5052208;28;20062;-52
2023/06/10 09:37:53;;;;;;;29.25;5.68;;;22.80;94.60;;;;;;5052302;28;20029;-55
2023/06/10 09:40:19;;;;;;;7.13;4.60;;;22.80;94.40;;;;;;5052140;28;20028;-55
2023/06/10 09:42:45;;;;;;;7.43;4.25;;;22.80;94.60;;;;;;5050935;28;20031;-56
2023/06/10 09:45:11;;;;;;;9.67;5.67;;;22.90;94.40;;;;;;5051821;28;20419;-56
2023/06/10 09:47:37;;;;;;;9.33;5.50;;;22.90;94.30;;;;;;5051976;28;20059;-52
2023/06/10 09:50:03;;;;;;;15.83;6.33;;;23.00;94.70;;;;;;5050847;28;20033;-55
2023/06/10 09:52:29;;;;;;;12.27;5.05;;;23.00;94.80;;;;;;5052047;28;20025;-54
2023/06/10 09:55:02;;;;;;;5.97;3.70;;;23.10;94.10;;;;;;5051905;28;20036;-55
2023/06/10 09:57:33;;;;;;;6.32;3.63;;;23.10;91.70;;;;;;5051921;28;20090;-54
2023/06/10 10:00:03;;;;;;;5.15;4.10;;;23.10;91.30;;;;;;5050540;28;20039;-54
2023/06/10 10:02:49;;;;;;;7.07;4.40;;;23.10;92.10;;;;;;5051713;28;20033;-58
2023/06/10 10:05:15;;;;;;;;;;;23.10;92.40;;;;;;5052144;28;20029;-57
2023/06/10 10:07:42;;;;;;;11.40;3.95;;;23.20;92.80;;;;;;5050644;28;19908;-54
2023/06/10 10:10:09;;;;;;;5.43;3.95;;;23.30;92.40;;;;;;5051584;28;20025;-57
2023/06/10 10:12:37;;;;;;;9.95;4.93;;;23.40;92.40;;;;;;5050552;28;20032;-54
2023/06/10 10:15:07;;;;;;;13.85;4.90;;;23.50;92.40;;;;;;5051719;28;20041;-54
2023/06/10 10:17:37;;;;;;;8.80;5.20;;;23.60;92.60;;;;;;5051663;28;20033;-56
2023/06/10 10:20:05;;;;;;;7.82;4.05;;;23.80;92.30;;;;;;5051616;28;20025;-53
2023/06/10 10:22:44;;;;;;;7.88;4.35;;;23.90;91.80;;;;;;5051247;28;20033;-57
2023/06/10 10:25:13;;;;;;;9.65;5.45;;;24.00;89.50;;;;;;5051399;28;20024;-51
2023/06/10 10:27:52;;;;;;;8.13;4.80;;;24.00;90.50;;;;;;5050316;28;20021;-55
2023/06/10 10:30:20;;;;;;;10.00;4.78;;;24.20;90.60;;;;;;5051608;28;20036;-51
2023/06/10 10:32:59;;;;;;;7.55;4.30;;;24.20;90.00;;;;;;5051367;28;20060;-53
2023/06/10 10:35:25;;;;;;;6.60;4.90;;;24.20;90.40;;;;;;5051410;28;20036;-54
2023/06/10 10:37:53;;;;;;;6.95;4.20;;;24.20;90.70;;;;;;5051469;28;20060;-53
2023/06/10 10:40:23;;;;;;;7.00;4.55;;;24.20;90.00;;;;;;5051330;28;20471;-55
2023/06/10 10:42:50;;;;;;;7.10;4.57;;;24.30;89.00;;;;;;5049983;28;20120;-56
2023/06/10 10:45:16;;;;;;;12.13;4.05;;;24.40;88.40;;;;;;5063602;28;20360;-56
2023/06/10 10:47:44;;;;;;;6.03;4.35;;;24.50;89.20;;;;;;5037861;28;20029;-56
2023/06/10 10:50:18;;;;;;;9.02;4.03;;;24.60;87.00;;;;;;5062493;28;20029;-56
2023/06/10 10:53:03;;;;;;;4.90;3.80;;;24.80;86.50;;;;;;5062776;28;20387;-51
2023/06/10 10:55:29;;;;;;;7.03;4.13;;;25.00;85.10;;;;;;5053697;28;20029;-54
2023/06/10 10:57:56;;;;;;;4.43;3.20;;;25.10;85.20;;;;;;5061563;28;20032;-55
2023/06/10 11:00:46;;;;;;;6.53;4.43;;;25.20;83.60;;;;;;5044983;28;20494;-56
2023/06/10 11:03:16;;;;;;;8.10;4.03;;;25.40;82.30;;;;;;5055211;28;20032;-58
2023/06/10 11:05:47;;;;;;;5.88;4.10;;;25.40;80.50;;;;;;5051374;28;20618;-55
2023/06/10 11:08:14;;;;;;;7.45;4.22;;;25.40;81.10;;;;;;5054715;28;20025;-51
2023/06/10 11:10:54;;;;;;;6.80;4.18;;;25.40;80.90;;;;;;5051881;28;20036;-53
2023/06/10 11:13:22;;;;;;;5.80;2.90;;;25.70;81.60;;;;;;5059545;28;20032;-56
2023/06/10 11:15:52;;;;;;;6.38;3.90;;;25.70;79.00;;;;;;5052577;28;20021;-55
2023/06/10 11:18:25;;;;;;;9.15;4.20;;;25.70;78.10;;;;;;5038999;28;20025;-54
2023/06/10 11:20:55;;;;;;;10.05;4.25;;;25.70;80.60;;;;;;5062430;28;20547;-56
2023/06/10 11:23:27;;;;;;;7.15;4.20;;;25.60;80.10;;;;;;5053187;28;20032;-54
2023/06/10 11:26:12;;;;;;;6.15;3.50;;;25.60;81.80;;;;;;5058231;28;20016;-57
2023/06/10 11:28:42;;;;;;;8.35;3.30;;;25.70;77.60;;;;;;5069463;28;20035;-53
2023/06/10 11:31:18;;;;;;;6.20;3.45;;;25.70;80.30;;;;;;5056446;28;20100;-55
2023/06/10 11:33:44;;;;;;;5.60;3.28;;;26.10;78.80;;;;;;5062313;28;20032;-57
2023/06/10 11:36:10;;;;;;;4.93;3.13;;;26.30;76.70;;;;;;5074416;28;20107;-56
2023/06/10 11:38:36;;;;;;;5.90;3.60;;;26.60;75.30;;;;;;5056600;28;20354;-58
2023/06/10 11:41:03;;;;;;;6.05;3.40;;;26.70;74.10;;;;;;5061161;28;20542;-55
2023/06/10 11:43:30;;;;;;;4.57;3.10;;;26.90;71.10;;;;;;5062806;28;20028;-53
2023/06/10 11:45:56;;;;;;;5.95;3.00;;;27.00;70.90;;;;;;5065066;28;20033;-51
2023/06/10 11:48:22;;;;;;;4.40;2.92;;;27.20;70.00;;;;;;5061432;28;20456;-54
2023/06/10 11:50:48;;;;;;;3.25;2.10;;;27.40;68.40;;;;;;5059996;28;20123;-57
2023/06/10 11:53:14;;;;;;;4.60;2.13;;;27.60;69.00;;;;;;5060017;28;20056;-57
2023/06/10 11:55:45;;;;;;;10.68;3.55;;;27.80;68.50;;;;;;5070313;28;20215;-52
2023/06/10 11:58:22;;;;;;;4.70;2.75;;;27.80;64.10;;;;;;5059030;28;20025;-56
2023/06/10 12:00:50;;;;;;;6.65;2.78;;;27.80;65.00;;;;;;5061046;28;20025;-56
2023/06/10 12:03:17;;;;;;;4.63;2.83;;;27.70;65.10;;;;;;5059829;28;20545;-53
2023/06/10 12:06:03;;;;;;;;;;;27.70;65.50;;;;;;5069482;28;20025;-55
2023/06/10 12:08:29;;;;;;;5.60;3.10;;;27.60;63.70;;;;;;5063349;28;19909;-56
2023/06/10 12:10:56;;;;;;;4.55;2.80;;;27.60;65.50;;;;;;5059278;28;20037;-52
2023/06/10 12:13:23;;;;;;;3.55;2.70;;;27.60;64.10;;;;;;5056483;28;20033;-55
2023/06/10 12:15:50;;;;;;;5.03;2.80;;;27.90;65.60;;;;;;5065583;28;20040;-55
2023/06/10 12:18:19;;;;;;;5.32;2.47;;;28.00;63.70;;;;;;5059261;28;20116;-54
2023/06/10 12:20:46;;;;;;;4.55;2.40;;;28.20;62.40;;;;;;5063916;28;20037;-54
2023/06/10 12:23:12;;;;;;;7.65;3.00;;;28.40;63.20;;;;;;5066805;28;20021;-55
2023/06/10 12:25:39;;;;;;;8.73;4.70;;;28.80;63.60;;;;;;5062843;28;20021;-55
2023/06/10 12:28:06;;;;;;;8.07;3.08;;;29.00;63.40;;;;;;5057361;28;20025;-57
2023/06/10 12:30:32;;;;;;;3.95;2.28;;;29.10;63.50;;;;;;5067849;28;20300;-54
2023/06/10 12:32:59;;;;;;;6.45;3.05;;;29.30;62.60;;;;;;5062056;28;20033;-56
2023/06/10 12:35:28;;;;;;;8.38;3.65;;;29.40;61.20;;;;;;5061416;28;20037;-52
2023/06/10 12:37:56;;;;;;;3.13;2.47;;;29.50;60.30;;;;;;5064257;28;20029;-56
2023/06/10 12:40:32;;;;;;;4.47;3.10;;;29.60;61.00;;;;;;5071324;28;20507;-57
2023/06/10 12:42:59;;;;;;;7.70;3.88;;;29.40;60.80;;;;;;5070350;28;20024;-55